Time;durP1;ratioP1;P1;durP2;ratioP2;P2;SDS_P1;SDS_P2;PMS_P1;PMS_P2;Temp;Humidity;BMP_temperature;BMP_pressure;BME280_temperature;BME280_humidity;BME280_pressure;Samples;Min_cycle;Max_cycle;Signal;HPM_P1;HPM_P2
2024/02/23 00:01:57;;;;;;;13.15;3.20;;;6.10;88.30;;;;;;4975080;28;20489;-78
2024/02/23 00:04:22;;;;;;;15.93;3.25;;;6.10;87.80;;;;;;4976808;28;20022;-77
2024/02/23 00:06:48;;;;;;;10.23;3.17;;;6.10;87.90;;;;;;4969748;28;20035;-77
2024/02/23 00:09:14;;;;;;;9.05;2.50;;;6.20;88.10;;;;;;4976800;28;20068;-78
2024/02/23 00:11:44;;;;;;;9.73;2.30;;;6.20;88.00;;;;;;4976742;28;20042;-78
2024/02/23 00:14:13;;;;;;;8.95;2.45;;;6.20;87.90;;;;;;4977124;28;20026;-78
2024/02/23 00:16:41;;;;;;;10.60;2.60;;;6.20;87.90;;;;;;4963410;28;20042;-77
2024/02/23 00:19:10;;;;;;;13.07;3.35;;;6.30;87.80;;;;;;4979675;28;20022;-78
2024/02/23 00:21:37;;;;;;;10.65;2.58;;;6.20;87.90;;;;;;4963128;28;20130;-79
2024/02/23 00:24:03;;;;;;;8.88;2.30;;;6.10;88.10;;;;;;4964956;28;20054;-79
2024/02/23 00:26:29;;;;;;;7.40;2.15;;;6.10;88.30;;;;;;4976372;28;20569;-79
2024/02/23 00:28:55;;;;;;;8.60;2.30;;;6.10;88.70;;;;;;4978028;28;20026;-80
2024/02/23 00:31:21;;;;;;;8.90;2.80;;;6.10;89.00;;;;;;4975621;28;20077;-79
2024/02/23 00:33:47;;;;;;;9.90;2.50;;;6.00;89.30;;;;;;4981218;28;20108;-79
2024/02/23 00:36:13;;;;;;;12.35;2.53;;;6.10;89.50;;;;;;4977313;28;20355;-79
2024/02/23 00:38:38;;;;;;;9.82;2.47;;;6.00;89.80;;;;;;4970815;28;20101;-79
2024/02/23 00:41:04;;;;;;;12.43;2.80;;;6.00;89.90;;;;;;4978012;28;20041;-76
2024/02/23 00:43:37;;;;;;;10.93;2.92;;;6.00;90.00;;;;;;4979825;28;20030;-78
2024/02/23 00:46:04;;;;;;;11.25;2.70;;;6.00;90.00;;;;;;4971406;28;20027;-80
2024/02/23 00:48:30;;;;;;;11.13;2.25;;;6.00;90.30;;;;;;4977679;28;20049;-80
2024/02/23 00:50:55;;;;;;;9.18;2.67;;;6.00;90.40;;;;;;4974863;28;20051;-80
2024/02/23 00:53:21;;;;;;;10.40;2.28;;;6.00;90.50;;;;;;4980008;28;20022;-79
2024/02/23 00:55:47;;;;;;;9.18;2.22;;;6.00;90.50;;;;;;4974533;28;20119;-79
2024/02/23 00:58:13;;;;;;;11.10;2.42;;;5.90;90.60;;;;;;4973651;28;20022;-79
2024/02/23 01:00:39;;;;;;;6.20;2.00;;;5.80;90.60;;;;;;4978475;28;20042;-80
2024/02/23 01:03:05;;;;;;;6.57;2.30;;;5.80;90.80;;;;;;4979231;28;20030;-81
2024/02/23 01:05:30;;;;;;;8.95;2.25;;;5.80;91.00;;;;;;4978893;28;20030;-78
2024/02/23 01:07:56;;;;;;;8.18;2.10;;;5.70;91.20;;;;;;4976511;28;20030;-80
2024/02/23 01:10:22;;;;;;;9.68;2.63;;;5.70;91.10;;;;;;4976028;28;20034;-79
2024/02/23 01:12:47;;;;;;;10.75;2.25;;;5.70;91.10;;;;;;4978111;28;20520;-77
2024/02/23 01:15:13;;;;;;;9.73;2.95;;;5.70;91.00;;;;;;4971214;28;20038;-78
2024/02/23 01:17:38;;;;;;;10.82;2.45;;;5.60;91.00;;;;;;4976494;28;20105;-78
2024/02/23 01:20:05;;;;;;;11.32;2.70;;;5.60;91.00;;;;;;4977091;28;20034;-79
2024/02/23 01:22:30;;;;;;;7.78;2.83;;;5.60;91.00;;;;;;4974218;28;20046;-78
2024/02/23 01:24:56;;;;;;;7.47;2.42;;;5.60;91.00;;;;;;4976557;28;20051;-78
2024/02/23 01:27:22;;;;;;;12.07;2.20;;;5.60;90.90;;;;;;4980908;28;20027;-78
2024/02/23 01:29:47;;;;;;;9.45;2.60;;;5.60;90.80;;;;;;4977781;28;20374;-76
2024/02/23 01:32:13;;;;;;;12.75;2.60;;;5.60;90.70;;;;;;4978308;28;20030;-78
2024/02/23 01:34:38;;;;;;;8.93;2.15;;;5.60;90.70;;;;;;4977657;28;20041;-78
2024/02/23 01:37:04;;;;;;;10.52;2.35;;;5.70;90.60;;;;;;4978663;28;20637;-77
2024/02/23 01:39:30;;;;;;;11.27;1.92;;;5.60;90.40;;;;;;4978593;28;20101;-78
2024/02/23 01:41:55;;;;;;;8.85;2.10;;;5.60;90.50;;;;;;4978933;28;20535;-78
2024/02/23 01:44:21;;;;;;;9.25;2.55;;;5.60;90.50;;;;;;4971667;28;20072;-76
2024/02/23 01:46:47;;;;;;;12.90;2.92;;;5.60;90.60;;;;;;4974090;28;20495;-78
2024/02/23 01:49:14;;;;;;;13.70;3.13;;;5.60;90.70;;;;;;4970471;28;21335;-76
2024/02/23 01:51:40;;;;;;;10.52;2.75;;;5.60;90.90;;;;;;4956159;28;20055;-78
2024/02/23 01:54:06;;;;;;;12.93;2.58;;;5.60;91.20;;;;;;4959302;28;20035;-78
2024/02/23 01:56:33;;;;;;;10.13;2.47;;;5.60;91.30;;;;;;4953123;28;20467;-77
2024/02/23 01:59:00;;;;;;;9.45;2.88;;;5.60;91.20;;;;;;4958362;28;20026;-78
2024/02/23 02:01:25;;;;;;;11.93;2.85;;;5.70;91.30;;;;;;4970961;28;20030;-78
2024/02/23 02:03:51;;;;;;;12.32;2.83;;;5.70;91.30;;;;;;4979489;28;20374;-78
2024/02/23 02:06:17;;;;;;;9.88;2.75;;;5.70;91.40;;;;;;4982924;28;20098;-78
2024/02/23 02:08:43;;;;;;;8.57;2.60;;;5.70;91.40;;;;;;4977973;28;20029;-78
2024/02/23 02:11:09;;;;;;;9.60;3.10;;;5.70;91.50;;;;;;4975306;28;20034;-77
2024/02/23 02:13:35;;;;;;;10.25;2.88;;;5.60;91.50;;;;;;4971348;28;21049;-78
2024/02/23 02:16:02;;;;;;;9.73;3.50;;;5.60;91.70;;;;;;4971621;28;20121;-77
2024/02/23 02:18:27;;;;;;;10.07;3.38;;;5.60;91.80;;;;;;4970756;28;20025;-81
2024/02/23 02:20:57;;;;;;;13.48;2.88;;;5.60;91.70;;;;;;4977109;28;20038;-78
2024/02/23 02:23:23;;;;;;;9.40;2.92;;;5.70;91.70;;;;;;4973822;28;20026;-77
2024/02/23 02:25:56;;;;;;;11.52;3.35;;;5.60;91.60;;;;;;4973075;28;20039;-77
2024/02/23 02:28:23;;;;;;;9.35;3.42;;;5.60;91.60;;;;;;4975392;28;20057;-77
2024/02/23 02:30:50;;;;;;;12.45;3.42;;;5.60;91.60;;;;;;4974348;28;20034;-77
2024/02/23 02:33:16;;;;;;;13.93;3.80;;;5.60;91.60;;;;;;4978559;28;20033;-78
2024/02/23 02:35:42;;;;;;;12.07;3.58;;;5.60;91.70;;;;;;4975282;28;20034;-78
2024/02/23 02:38:07;;;;;;;12.43;3.53;;;5.60;91.70;;;;;;4976505;28;20446;-76
2024/02/23 02:40:33;;;;;;;14.27;3.45;;;5.60;91.60;;;;;;4973803;28;20121;-78
2024/02/23 02:42:59;;;;;;;13.18;3.30;;;5.60;91.70;;;;;;4978565;28;20318;-79
2024/02/23 02:45:24;;;;;;;9.43;3.40;;;5.60;91.70;;;;;;4975817;28;20053;-77
2024/02/23 02:47:50;;;;;;;13.30;3.75;;;5.60;91.70;;;;;;4974187;28;20096;-78
2024/02/23 02:50:16;;;;;;;11.25;3.33;;;5.60;91.60;;;;;;4970534;28;20453;-77
2024/02/23 02:52:42;;;;;;;10.25;3.13;;;5.60;91.60;;;;;;4975408;28;20033;-80
2024/02/23 02:55:08;;;;;;;11.90;4.03;;;5.70;91.60;;;;;;4974003;28;20054;-79
2024/02/23 02:57:35;;;;;;;12.48;3.67;;;5.70;91.60;;;;;;4975575;28;20030;-78
2024/02/23 03:00:04;;;;;;;12.70;3.53;;;5.70;91.60;;;;;;4976565;28;20159;-79
2024/02/23 03:02:33;;;;;;;16.30;4.15;;;5.70;91.50;;;;;;4975156;28;20041;-78
2024/02/23 03:04:59;;;;;;;10.25;3.50;;;5.70;91.60;;;;;;4974269;28;20049;-78
2024/02/23 03:07:25;;;;;;;13.32;3.53;;;5.70;91.60;;;;;;4976107;28;20018;-78
2024/02/23 03:09:50;;;;;;;10.02;3.55;;;5.70;91.60;;;;;;4976184;28;20122;-79
2024/02/23 03:12:17;;;;;;;10.95;3.20;;;5.80;91.50;;;;;;4974413;28;20112;-78
2024/02/23 03:14:43;;;;;;;13.52;4.10;;;5.80;91.50;;;;;;4972953;28;20097;-79
2024/02/23 03:17:09;;;;;;;11.02;3.63;;;5.70;91.60;;;;;;4981553;28;20049;-78
2024/02/23 03:19:35;;;;;;;10.00;3.28;;;5.80;91.60;;;;;;4976749;28;20093;-79
2024/02/23 03:22:01;;;;;;;8.95;3.15;;;5.80;91.60;;;;;;4973549;28;20114;-79
2024/02/23 03:24:26;;;;;;;10.50;3.42;;;5.80;91.60;;;;;;4987383;28;20474;-79
2024/02/23 03:26:52;;;;;;;9.48;3.15;;;5.90;91.60;;;;;;4973300;28;20034;-78
2024/02/23 03:29:17;;;;;;;11.07;3.50;;;5.90;91.60;;;;;;4976749;28;20029;-80
2024/02/23 03:31:43;;;;;;;12.38;3.60;;;5.80;91.60;;;;;;4972775;28;20078;-77
2024/02/23 03:34:09;;;;;;;10.38;3.25;;;5.70;91.60;;;;;;4977527;28;20615;-78
2024/02/23 03:36:34;;;;;;;12.85;3.63;;;5.70;91.60;;;;;;4971067;28;20042;-79
2024/02/23 03:39:01;;;;;;;12.73;3.50;;;5.70;91.60;;;;;;4975799;28;20129;-79
2024/02/23 03:41:26;;;;;;;11.68;3.65;;;5.70;91.70;;;;;;4972411;28;20122;-77
2024/02/23 03:43:52;;;;;;;9.57;2.80;;;5.70;91.70;;;;;;4974952;28;20113;-78
2024/02/23 03:46:18;;;;;;;13.35;3.70;;;5.80;91.70;;;;;;4962930;28;20027;-79
2024/02/23 03:48:45;;;;;;;8.02;2.83;;;5.80;91.70;;;;;;4955753;28;20458;-78
2024/02/23 03:51:10;;;;;;;12.70;2.90;;;5.80;91.60;;;;;;4967778;28;20054;-78
2024/02/23 03:53:36;;;;;;;15.40;4.03;;;5.80;91.50;;;;;;4979697;28;20026;-79
2024/02/23 03:56:02;;;;;;;16.80;3.35;;;5.80;91.50;;;;;;4977095;28;20034;-79
2024/02/23 03:58:28;;;;;;;9.77;3.67;;;5.80;91.30;;;;;;4978849;28;20240;-78
2024/02/23 04:00:54;;;;;;;13.68;3.40;;;5.80;91.30;;;;;;4972704;28;21179;-78
2024/02/23 04:03:20;;;;;;;11.68;3.53;;;5.80;91.20;;;;;;4978022;28;20041;-78
2024/02/23 04:05:45;;;;;;;15.70;3.17;;;5.80;91.20;;;;;;4975553;28;20031;-79
2024/02/23 04:08:11;;;;;;;10.98;3.13;;;5.80;90.80;;;;;;4973332;28;20101;-77
2024/02/23 04:10:37;;;;;;;14.25;4.55;;;5.80;90.80;;;;;;4960602;28;20042;-77
2024/02/23 04:13:02;;;;;;;13.45;2.67;;;5.80;90.40;;;;;;4971346;28;20023;-79
2024/02/23 04:15:28;;;;;;;12.38;3.88;;;5.80;90.40;;;;;;4959084;28;20314;-78
2024/02/23 04:17:54;;;;;;;10.35;3.17;;;5.80;90.30;;;;;;4958929;28;20073;-78
2024/02/23 04:20:19;;;;;;;11.00;2.95;;;5.80;90.30;;;;;;4956454;28;20043;-79
2024/02/23 04:22:46;;;;;;;14.05;2.90;;;5.70;90.40;;;;;;4953755;28;20026;-76
2024/02/23 04:25:11;;;;;;;12.18;2.97;;;5.70;90.30;;;;;;4956724;28;20678;-79
2024/02/23 04:27:37;;;;;;;11.40;2.67;;;5.70;90.30;;;;;;4959340;28;20093;-79
2024/02/23 04:30:03;;;;;;;15.13;3.72;;;5.60;90.30;;;;;;4957179;28;20486;-79
2024/02/23 04:32:30;;;;;;;12.35;3.50;;;5.60;90.40;;;;;;4961268;28;20737;-78
2024/02/23 04:34:56;;;;;;;12.93;3.50;;;5.60;90.50;;;;;;4959352;28;20050;-79
2024/02/23 04:37:22;;;;;;;8.23;2.50;;;5.60;90.40;;;;;;4964062;28;20118;-76
2024/02/23 04:39:47;;;;;;;12.80;3.00;;;5.50;90.60;;;;;;4955585;28;20904;-78
2024/02/23 04:42:13;;;;;;;12.55;3.05;;;5.60;90.60;;;;;;4955571;28;20212;-79
2024/02/23 04:44:41;;;;;;;15.80;3.70;;;5.50;90.50;;;;;;4957308;28;20023;-79
2024/02/23 04:47:06;;;;;;;12.15;3.45;;;5.50;90.60;;;;;;4978355;28;20449;-78
2024/02/23 04:49:32;;;;;;;12.35;2.50;;;5.50;90.50;;;;;;4980471;28;20010;-78
2024/02/23 04:51:58;;;;;;;9.90;3.17;;;5.50;90.70;;;;;;4975639;28;20050;-76
2024/02/23 04:54:23;;;;;;;10.13;3.17;;;5.50;90.70;;;;;;4980709;28;20425;-78
2024/02/23 04:56:50;;;;;;;10.88;2.70;;;5.40;90.70;;;;;;4978902;28;20038;-78
2024/02/23 04:59:15;;;;;;;15.20;3.65;;;5.40;90.70;;;;;;4980208;28;20520;-78
2024/02/23 05:01:42;;;;;;;14.27;3.20;;;5.40;90.70;;;;;;4978187;28;20030;-78
2024/02/23 05:04:08;;;;;;;11.30;2.67;;;5.40;90.70;;;;;;4978807;28;20057;-78
2024/02/23 05:06:33;;;;;;;12.07;3.17;;;5.40;90.60;;;;;;4976260;28;20058;-79
2024/02/23 05:08:59;;;;;;;10.23;2.67;;;5.40;90.60;;;;;;4978351;28;20026;-78
2024/02/23 05:11:25;;;;;;;12.98;2.58;;;5.40;90.50;;;;;;4974999;28;20034;-80
2024/02/23 05:13:50;;;;;;;10.25;2.83;;;5.50;90.50;;;;;;4976368;28;20030;-79
2024/02/23 05:16:16;;;;;;;12.23;3.35;;;5.50;90.50;;;;;;4973049;28;20720;-78
2024/02/23 05:18:43;;;;;;;15.75;2.70;;;5.50;90.50;;;;;;4973977;28;20631;-79
2024/02/23 05:21:09;;;;;;;9.45;2.97;;;5.50;90.40;;;;;;4981804;28;20174;-77
2024/02/23 05:23:35;;;;;;;14.13;3.13;;;5.60;90.30;;;;;;4979736;28;20038;-78
2024/02/23 05:26:01;;;;;;;10.45;3.10;;;5.60;90.20;;;;;;4978289;28;20053;-77
2024/02/23 05:28:27;;;;;;;15.50;3.47;;;5.60;90.20;;;;;;4974544;28;20027;-77
2024/02/23 05:30:54;;;;;;;9.95;3.42;;;5.60;90.10;;;;;;4981307;28;20092;-79
2024/02/23 05:33:22;;;;;;;10.02;3.10;;;5.60;90.00;;;;;;4977640;28;20074;-78
2024/02/23 05:35:52;;;;;;;13.32;2.80;;;5.60;90.00;;;;;;4977937;28;20034;-78
2024/02/23 05:38:17;;;;;;;11.48;2.90;;;5.60;89.90;;;;;;4977655;28;20123;-78
2024/02/23 05:40:43;;;;;;;12.25;3.45;;;5.60;89.80;;;;;;4976635;28;20046;-80
2024/02/23 05:43:09;;;;;;;14.60;3.10;;;5.70;89.80;;;;;;4979182;28;20042;-77
2024/02/23 05:45:34;;;;;;;13.73;3.47;;;5.70;89.60;;;;;;4977524;28;20440;-78
2024/02/23 05:48:00;;;;;;;12.57;3.13;;;5.70;89.60;;;;;;4977215;28;20023;-77
2024/02/23 05:50:26;;;;;;;11.95;2.53;;;5.70;89.60;;;;;;4977235;28;20038;-78
2024/02/23 05:52:53;;;;;;;10.55;2.72;;;5.70;89.50;;;;;;4975921;28;20772;-78
2024/02/23 05:55:19;;;;;;;10.23;3.83;;;5.70;89.50;;;;;;4976594;28;20157;-77
2024/02/23 05:57:44;;;;;;;11.98;2.95;;;5.70;89.60;;;;;;4978317;28;20117;-78
2024/02/23 06:00:10;;;;;;;12.00;3.42;;;5.70;89.60;;;;;;4974399;28;20045;-78
2024/02/23 06:02:37;;;;;;;14.68;2.92;;;5.80;89.70;;;;;;4977794;28;20018;-76
2024/02/23 06:05:03;;;;;;;15.95;3.45;;;5.80;89.60;;;;;;4976056;28;20600;-79
2024/02/23 06:07:29;;;;;;;11.82;3.00;;;5.70;89.50;;;;;;4973850;28;20536;-78
2024/02/23 06:09:58;;;;;;;17.40;3.45;;;5.80;89.50;;;;;;4975867;28;20038;-78
2024/02/23 06:12:24;;;;;;;15.07;3.42;;;5.80;89.50;;;;;;4974983;28;20073;-77
2024/02/23 06:14:51;;;;;;;17.20;5.13;;;5.80;89.60;;;;;;4976573;28;20047;-81
2024/02/23 06:17:17;;;;;;;14.55;3.22;;;5.90;89.80;;;;;;4976064;28;20042;-78
2024/02/23 06:19:43;;;;;;;14.20;3.47;;;5.80;89.50;;;;;;4976418;28;20543;-78
2024/02/23 06:22:12;;;;;;;10.65;3.20;;;5.90;89.70;;;;;;4974375;28;20030;-79
2024/02/23 06:24:38;;;;;;;14.07;3.10;;;5.90;89.60;;;;;;4976061;28;20111;-78
2024/02/23 06:27:04;;;;;;;14.98;3.50;;;5.90;89.80;;;;;;4979331;28;20745;-79
2024/02/23 06:29:30;;;;;;;13.20;2.85;;;5.90;89.90;;;;;;4974042;28;20026;-77
2024/02/23 06:31:55;;;;;;;11.93;2.78;;;5.90;90.20;;;;;;4974881;28;20034;-80
2024/02/23 06:34:21;;;;;;;14.48;3.22;;;5.90;90.20;;;;;;4976033;28;20035;-79
2024/02/23 06:36:47;;;;;;;10.70;2.90;;;6.00;90.20;;;;;;4956086;28;20521;-78
2024/02/23 06:39:13;;;;;;;16.25;3.72;;;6.00;90.10;;;;;;4954320;28;20137;-79
2024/02/23 06:41:39;;;;;;;12.18;3.17;;;6.00;90.00;;;;;;4950354;28;20528;-78
2024/02/23 06:44:05;;;;;;;14.30;3.33;;;6.10;90.00;;;;;;4953488;28;20038;-79
2024/02/23 06:46:31;;;;;;;11.52;3.28;;;6.10;89.80;;;;;;4969375;28;20480;-76
2024/02/23 06:48:56;;;;;;;10.77;3.17;;;6.10;89.70;;;;;;4974874;28;20011;-78
2024/02/23 06:51:22;;;;;;;13.27;3.42;;;6.10;89.60;;;;;;4960967;28;20425;-77
2024/02/23 06:53:48;;;;;;;12.88;2.75;;;6.20;89.60;;;;;;4955245;28;20461;-78
2024/02/23 06:56:13;;;;;;;8.77;2.42;;;6.10;89.70;;;;;;4965407;28;20038;-77
2024/02/23 06:58:40;;;;;;;11.15;2.70;;;6.10;89.70;;;;;;4978117;28;20033;-78
2024/02/23 07:01:06;;;;;;;14.23;3.10;;;6.10;89.90;;;;;;4971531;28;20042;-77
2024/02/23 07:03:33;;;;;;;13.82;2.55;;;6.10;89.90;;;;;;4976452;28;20040;-76
2024/02/23 07:05:58;;;;;;;10.43;2.38;;;6.10;89.90;;;;;;4973349;28;20102;-77
2024/02/23 07:08:24;;;;;;;14.45;3.00;;;6.10;89.80;;;;;;4974786;28;20152;-78
2024/02/23 07:10:50;;;;;;;13.57;3.40;;;6.20;89.90;;;;;;4972542;28;20379;-79
2024/02/23 07:13:17;;;;;;;13.85;3.60;;;6.10;90.40;;;;;;4977691;28;20335;-79
2024/02/23 07:15:43;;;;;;;12.38;2.95;;;6.10;90.50;;;;;;4972798;28;20038;-78
2024/02/23 07:18:09;;;;;;;13.73;4.30;;;6.10;90.70;;;;;;4977702;28;20026;-79
2024/02/23 07:20:36;;;;;;;10.35;3.38;;;6.10;90.60;;;;;;4969678;28;20053;-79
2024/02/23 07:23:02;;;;;;;10.77;2.83;;;6.10;90.40;;;;;;4974953;28;20892;-78
2024/02/23 07:25:27;;;;;;;10.52;2.92;;;6.10;90.40;;;;;;4970216;28;20436;-78
2024/02/23 07:27:53;;;;;;;10.27;3.28;;;6.20;90.30;;;;;;4975296;28;20061;-78
2024/02/23 07:30:18;;;;;;;16.30;3.63;;;6.20;90.30;;;;;;4974926;28;20133;-78
2024/02/23 07:32:46;;;;;;;13.95;2.88;;;6.20;90.20;;;;;;4977838;28;20381;-78
2024/02/23 07:35:11;;;;;;;14.30;3.13;;;6.20;90.30;;;;;;4973945;28;20468;-77
2024/02/23 07:37:37;;;;;;;12.63;2.90;;;6.20;90.50;;;;;;4975258;28;20033;-78
2024/02/23 07:40:03;;;;;;;12.25;2.75;;;6.30;90.30;;;;;;4976697;28;20057;-78
2024/02/23 07:42:32;;;;;;;13.65;2.72;;;6.30;90.10;;;;;;4974812;28;20038;-76
2024/02/23 07:44:58;;;;;;;11.05;3.10;;;6.40;90.00;;;;;;4972718;28;20376;-77
2024/02/23 07:47:26;;;;;;;8.95;2.53;;;6.40;89.70;;;;;;4973427;28;20549;-76
2024/02/23 07:49:53;;;;;;;12.35;2.85;;;6.40;89.70;;;;;;4973572;28;20031;-76
2024/02/23 07:52:19;;;;;;;12.98;3.20;;;6.50;89.70;;;;;;4972490;28;20124;-76
2024/02/23 07:54:44;;;;;;;10.80;2.88;;;6.50;89.60;;;;;;4974950;28;20057;-74
2024/02/23 07:57:10;;;;;;;12.88;2.90;;;6.50;89.70;;;;;;4975982;28;20050;-74
2024/02/23 07:59:36;;;;;;;15.25;3.50;;;6.50;89.50;;;;;;4955088;28;20121;-75
2024/02/23 08:02:01;;;;;;;10.98;2.85;;;6.50;89.40;;;;;;4957794;28;20085;-75
2024/02/23 08:04:27;;;;;;;11.00;2.47;;;6.60;89.50;;;;;;4956028;28;20038;-75
2024/02/23 08:06:53;;;;;;;11.52;3.20;;;6.60;89.30;;;;;;4975354;28;20031;-75
2024/02/23 08:09:18;;;;;;;11.50;2.80;;;6.60;89.30;;;;;;4972421;28;20034;-75
2024/02/23 08:11:45;;;;;;;6.85;2.42;;;6.60;88.90;;;;;;4976230;28;20549;-74
2024/02/23 08:14:11;;;;;;;10.88;2.60;;;6.70;89.20;;;;;;4974509;28;20121;-74
2024/02/23 08:16:37;;;;;;;10.95;2.88;;;6.80;88.80;;;;;;4974600;28;20069;-74
2024/02/23 08:19:03;;;;;;;13.20;3.10;;;6.80;88.80;;;;;;4975483;28;20522;-75
2024/02/23 08:21:28;;;;;;;13.57;3.17;;;6.90;89.00;;;;;;4970663;28;20047;-76
2024/02/23 08:23:54;;;;;;;12.90;3.25;;;6.80;88.70;;;;;;4969044;28;20058;-76
2024/02/23 08:26:20;;;;;;;15.43;3.58;;;6.90;88.80;;;;;;4975386;28;20511;-76
2024/02/23 08:28:45;;;;;;;11.25;3.17;;;6.90;88.90;;;;;;4978028;28;21270;-76
2024/02/23 08:31:11;;;;;;;10.02;3.13;;;6.90;88.90;;;;;;4960774;28;20047;-76
2024/02/23 08:33:36;;;;;;;10.98;3.72;;;6.90;88.80;;;;;;4952854;28;20856;-75
2024/02/23 08:36:05;;;;;;;15.20;3.08;;;7.00;88.80;;;;;;4966637;28;20043;-75
2024/02/23 08:38:32;;;;;;;13.73;3.63;;;7.00;89.00;;;;;;4977168;28;20085;-76
2024/02/23 08:40:58;;;;;;;13.38;3.33;;;7.10;88.90;;;;;;4978598;28;20578;-75
2024/02/23 08:43:24;;;;;;;16.38;4.53;;;7.10;88.90;;;;;;4977685;28;20499;-76
2024/02/23 08:45:50;;;;;;;10.48;3.50;;;7.10;89.10;;;;;;4976857;28;20038;-78
2024/02/23 08:48:15;;;;;;;10.77;3.13;;;7.20;89.20;;;;;;4979687;28;20528;-74
2024/02/23 08:50:41;;;;;;;15.32;4.22;;;7.20;88.90;;;;;;4982587;28;20063;-75
2024/02/23 08:53:07;;;;;;;11.82;3.13;;;7.30;88.80;;;;;;4955456;28;20496;-77
2024/02/23 08:55:33;;;;;;;10.32;3.03;;;7.30;88.70;;;;;;4955395;28;20062;-75
2024/02/23 08:57:58;;;;;;;13.13;5.75;;;7.30;88.50;;;;;;4937539;28;20663;-77
2024/02/23 09:00:24;;;;;;;9.85;3.13;;;7.20;88.70;;;;;;4957768;28;20035;-76
2024/02/23 09:02:50;;;;;;;9.20;2.72;;;7.20;88.60;;;;;;4952335;28;20114;-77
2024/02/23 09:05:16;;;;;;;9.50;2.90;;;7.10;88.70;;;;;;4950141;28;20334;-77
2024/02/23 09:07:42;;;;;;;10.50;2.83;;;7.10;88.40;;;;;;4960327;28;20022;-76
2024/02/23 09:10:08;;;;;;;10.52;3.78;;;7.20;88.70;;;;;;4965859;28;20031;-77
2024/02/23 09:12:34;;;;;;;10.18;3.55;;;7.30;88.40;;;;;;4957818;28;20584;-77
2024/02/23 09:15:00;;;;;;;18.55;3.75;;;7.20;88.50;;;;;;4957053;28;20087;-76
2024/02/23 09:17:25;;;;;;;9.85;2.42;;;7.20;88.50;;;;;;4965247;28;20026;-76
2024/02/23 09:19:51;;;;;;;7.90;2.25;;;7.20;88.40;;;;;;4969171;28;20389;-77
2024/02/23 09:22:17;;;;;;;9.68;2.80;;;7.20;88.70;;;;;;4978402;28;20066;-78
2024/02/23 09:24:43;;;;;;;7.45;2.72;;;7.20;88.60;;;;;;4974718;28;20490;-76
2024/02/23 09:27:08;;;;;;;8.75;2.78;;;7.20;89.20;;;;;;4958485;28;20563;-77
2024/02/23 09:29:35;;;;;;;9.90;2.72;;;7.20;89.70;;;;;;4972539;28;20034;-76
2024/02/23 09:32:00;;;;;;;9.48;2.67;;;7.20;90.20;;;;;;4977307;28;20181;-77
2024/02/23 09:34:26;;;;;;;7.97;2.70;;;7.20;90.40;;;;;;4978551;28;20563;-77
2024/02/23 09:36:52;;;;;;;9.32;3.42;;;7.20;90.50;;;;;;4977834;28;20034;-78
2024/02/23 09:39:18;;;;;;;9.57;2.50;;;7.30;90.50;;;;;;4977093;28;20035;-77
2024/02/23 09:41:43;;;;;;;9.95;2.97;;;7.40;90.30;;;;;;4958239;28;20030;-76
2024/02/23 09:44:10;;;;;;;6.75;2.08;;;7.30;90.00;;;;;;4958651;28;20466;-76
2024/02/23 09:46:40;;;;;;;16.50;5.28;;;7.30;90.10;;;;;;4973932;28;20026;-77
2024/02/23 09:49:08;;;;;;;9.55;2.85;;;7.30;89.90;;;;;;4975841;28;20476;-78
2024/02/23 09:51:36;;;;;;;11.15;2.80;;;7.30;90.10;;;;;;4971384;28;20034;-78
2024/02/23 09:54:02;;;;;;;12.38;6.07;;;7.30;90.10;;;;;;4979913;28;20014;-77
2024/02/23 09:56:28;;;;;;;10.80;3.00;;;7.40;90.20;;;;;;4973429;28;20153;-76
2024/02/23 09:58:59;;;;;;;9.45;3.33;;;7.50;90.00;;;;;;4977712;28;20034;-76
2024/02/23 10:01:31;;;;;;;10.68;2.92;;;7.60;89.80;;;;;;4972972;28;20034;-76
2024/02/23 10:03:57;;;;;;;9.73;2.90;;;7.60;89.40;;;;;;4974891;28;20052;-75
2024/02/23 10:06:27;;;;;;;10.88;3.15;;;7.80;89.10;;;;;;4973544;28;20049;-75
2024/02/23 10:08:53;;;;;;;6.00;2.55;;;7.80;89.20;;;;;;4976316;28;20117;-75
2024/02/23 10:11:23;;;;;;;11.60;4.35;;;7.90;89.00;;;;;;4975546;28;20034;-76
2024/02/23 10:13:49;;;;;;;8.52;3.17;;;8.00;88.90;;;;;;4978014;28;20113;-75
2024/02/23 10:16:15;;;;;;;13.07;3.40;;;8.10;88.60;;;;;;4978290;28;20045;-76
2024/02/23 10:18:41;;;;;;;9.50;2.75;;;8.10;88.20;;;;;;4977634;28;20026;-75
2024/02/23 10:21:07;;;;;;;7.63;2.75;;;8.20;87.90;;;;;;4975729;28;20037;-76
2024/02/23 10:23:33;;;;;;;11.45;3.00;;;8.10;87.70;;;;;;4978064;28;20072;-76
2024/02/23 10:25:59;;;;;;;12.15;3.28;;;8.30;87.90;;;;;;4977246;28;20362;-76
2024/02/23 10:28:24;;;;;;;9.25;3.25;;;8.30;87.00;;;;;;4978830;28;20444;-75
2024/02/23 10:30:50;;;;;;;10.27;2.45;;;8.40;87.00;;;;;;4969012;28;20034;-76
2024/02/23 10:33:17;;;;;;;11.50;3.20;;;8.40;86.50;;;;;;4977859;28;20031;-76
2024/02/23 10:35:45;;;;;;;13.57;4.53;;;8.40;86.40;;;;;;4974248;28;20066;-76
2024/02/23 10:38:15;;;;;;;10.27;3.10;;;8.30;86.20;;;;;;4976188;28;20061;-76
2024/02/23 10:40:44;;;;;;;11.63;3.45;;;8.40;86.20;;;;;;4976470;28;20041;-76
2024/02/23 10:43:16;;;;;;;11.65;3.60;;;8.30;86.30;;;;;;4975967;28;20037;-76
2024/02/23 10:45:41;;;;;;;10.82;3.78;;;8.30;86.30;;;;;;4975841;28;20088;-76
2024/02/23 10:48:11;;;;;;;6.03;2.60;;;8.30;86.10;;;;;;4978248;28;20511;-75
2024/02/23 10:50:37;;;;;;;11.23;3.35;;;8.20;86.20;;;;;;4974649;28;20030;-77
2024/02/23 10:53:06;;;;;;;7.32;2.60;;;8.20;86.40;;;;;;4973894;28;20035;-77
2024/02/23 10:55:33;;;;;;;9.73;3.05;;;8.10;86.40;;;;;;4966425;28;20072;-76
2024/02/23 10:57:59;;;;;;;9.18;3.05;;;8.10;86.40;;;;;;4957574;28;20089;-77
2024/02/23 11:00:25;;;;;;;10.68;2.95;;;8.00;87.00;;;;;;4950735;28;20547;-77
2024/02/23 11:02:53;;;;;;;7.50;2.72;;;7.90;87.50;;;;;;4952897;28;20124;-76
2024/02/23 11:05:19;;;;;;;6.97;2.92;;;8.00;87.50;;;;;;4961589;28;20048;-75
2024/02/23 11:07:51;;;;;;;7.68;2.65;;;8.10;87.50;;;;;;4975059;28;20023;-76
2024/02/23 11:10:18;;;;;;;6.80;3.00;;;8.20;87.00;;;;;;4975350;28;20114;-77
2024/02/23 11:12:44;;;;;;;6.38;3.03;;;8.20;87.10;;;;;;4977806;28;21177;-79
2024/02/23 11:15:30;;;;;;;8.10;2.75;;;8.20;87.40;;;;;;4986832;28;20133;-77
2024/02/23 11:17:56;;;;;;;7.90;2.83;;;8.20;87.60;;;;;;4982117;28;20018;-79
2024/02/23 11:20:26;;;;;;;6.00;2.60;;;8.10;87.40;;;;;;4971477;28;20058;-76
2024/02/23 11:22:53;;;;;;;8.40;2.88;;;8.10;87.80;;;;;;4976122;28;20022;-78
2024/02/23 11:25:20;;;;;;;5.80;2.08;;;8.10;88.10;;;;;;4973117;28;20061;-77
2024/02/23 11:27:49;;;;;;;5.88;2.13;;;8.00;88.80;;;;;;4962693;28;20027;-76
2024/02/23 11:30:17;;;;;;;12.00;2.95;;;8.00;88.90;;;;;;4956095;28;20604;-78
2024/02/23 11:32:47;;;;;;;4.60;2.30;;;8.10;89.00;;;;;;4972535;28;20685;-75
2024/02/23 11:35:19;;;;;;;8.32;2.85;;;8.10;89.20;;;;;;4971089;28;20420;-76
2024/02/23 11:38:02;;;;;;;6.00;2.85;;;8.20;88.80;;;;;;4972597;28;20408;-76
2024/02/23 11:40:31;;;;;;;8.55;3.28;;;8.30;88.90;;;;;;4969499;28;20065;-76
2024/02/23 11:42:57;;;;;;;9.95;2.75;;;8.50;88.60;;;;;;4972429;28;20026;-77
2024/02/23 11:45:28;;;;;;;7.43;2.70;;;8.60;88.50;;;;;;4970028;28;20046;-79
2024/02/23 11:47:54;;;;;;;9.45;2.90;;;8.60;87.90;;;;;;4969567;28;20065;-78
2024/02/23 11:50:20;;;;;;;10.90;2.90;;;8.60;88.20;;;;;;4982770;28;20038;-77
2024/02/23 11:52:47;;;;;;;4.95;2.22;;;8.70;88.00;;;;;;4970785;28;20176;-78
2024/02/23 11:55:18;;;;;;;7.35;2.53;;;8.70;87.70;;;;;;4970084;28;20133;-76
2024/02/23 11:57:45;;;;;;;7.50;2.13;;;8.80;87.60;;;;;;4974711;28;20030;-77
2024/02/23 12:00:11;;;;;;;4.75;2.60;;;8.70;87.40;;;;;;4971884;28;20150;-77
2024/02/23 12:02:36;;;;;;;7.68;2.47;;;8.80;87.40;;;;;;4971169;28;20706;-78
2024/02/23 12:05:02;;;;;;;8.07;3.30;;;8.70;87.40;;;;;;4970485;28;20042;-79
2024/02/23 12:07:30;;;;;;;9.52;3.38;;;8.80;87.70;;;;;;4970912;28;20126;-78
2024/02/23 12:09:56;;;;;;;7.00;2.45;;;9.00;87.20;;;;;;4970890;28;20096;-77
2024/02/23 12:12:23;;;;;;;8.38;3.47;;;9.10;87.20;;;;;;4966481;28;20450;-79
2024/02/23 12:14:49;;;;;;;6.35;2.20;;;9.30;87.10;;;;;;4951577;28;20038;-77
2024/02/23 12:17:15;;;;;;;10.98;2.65;;;9.60;86.00;;;;;;4955627;28;20439;-76
2024/02/23 12:19:41;;;;;;;5.65;2.30;;;9.70;85.20;;;;;;4953233;28;20062;-77
2024/02/23 12:22:06;;;;;;;6.18;2.17;;;9.90;84.80;;;;;;4972889;28;20030;-75
2024/02/23 12:24:33;;;;;;;9.32;2.33;;;10.20;84.00;;;;;;4973668;28;20508;-76
2024/02/23 12:26:59;;;;;;;13.70;4.90;;;10.60;82.80;;;;;;4971868;28;21470;-78
2024/02/23 12:29:25;;;;;;;13.93;5.57;;;10.80;82.00;;;;;;4974411;28;20018;-77
2024/02/23 12:31:52;;;;;;;9.50;3.88;;;10.80;81.60;;;;;;4976029;28;20056;-76
2024/02/23 12:34:20;;;;;;;10.77;4.18;;;10.60;81.60;;;;;;4976631;28;20413;-78
2024/02/23 12:36:46;;;;;;;6.25;3.03;;;10.50;82.00;;;;;;4972478;28;20247;-77
2024/02/23 12:39:12;;;;;;;9.10;2.90;;;10.60;82.70;;;;;;4978472;28;20369;-76
2024/02/23 12:41:37;;;;;;;9.23;2.78;;;10.40;82.10;;;;;;4959031;28;20041;-76
2024/02/23 12:44:03;;;;;;;10.13;2.47;;;10.30;82.10;;;;;;4961057;28;20035;-75
2024/02/23 12:46:28;;;;;;;8.32;2.78;;;10.40;81.70;;;;;;4973354;28;20030;-77